createdAt,value
2023-02-22T00:00:43.211Z,2.67
2023-02-22T00:03:50.304Z,2.80
2023-02-22T00:06:53.996Z,3.00
2023-02-22T00:09:57.312Z,2.90
2023-02-22T00:13:00.016Z,2.62
2023-02-22T00:16:02.990Z,2.80
2023-02-22T00:19:06.248Z,2.70
2023-02-22T00:22:09.002Z,2.25
2023-02-22T00:25:11.724Z,2.47
2023-02-22T00:28:15.422Z,3.10
2023-02-22T00:31:19.974Z,2.90
2023-02-22T00:34:24.403Z,2.80
2023-02-22T00:37:27.243Z,3.08
2023-02-22T00:40:32.284Z,2.72
2023-02-22T00:43:35.529Z,2.67
2023-02-22T00:46:38.248Z,2.60
2023-02-22T00:49:40.931Z,2.65
2023-02-22T00:52:44.504Z,2.95
2023-02-22T00:55:47.175Z,2.60
2023-02-22T00:58:49.956Z,2.72
2023-02-22T01:01:53.782Z,2.77
2023-02-22T01:04:56.719Z,3.05
2023-02-22T01:08:01.140Z,2.90
2023-02-22T01:11:07.129Z,2.80
2023-02-22T01:14:10.003Z,3.17
2023-02-22T01:17:15.952Z,2.70
2023-02-22T01:20:20.911Z,2.12
2023-02-22T01:23:23.701Z,2.70
2023-02-22T01:26:26.550Z,2.35
2023-02-22T01:29:29.288Z,2.47
2023-02-22T01:32:33.883Z,2.37
2023-02-22T01:35:41.016Z,2.58
2023-02-22T01:38:45.257Z,2.80
2023-02-22T01:41:48.001Z,2.22
2023-02-22T01:45:28.443Z,2.83
2023-02-22T01:48:39.166Z,2.87
2023-02-22T01:51:45.693Z,2.92
2023-02-22T01:54:53.293Z,3.55
2023-02-22T01:57:56.226Z,2.72
2023-02-22T02:00:59.363Z,3.40
2023-02-22T02:04:05.551Z,2.57
2023-02-22T02:07:09.724Z,2.92
2023-02-22T02:10:15.657Z,4.97
2023-02-22T02:13:20.381Z,2.67
2023-02-22T02:16:35.904Z,2.55
2023-02-22T02:19:57.131Z,3.00
2023-02-22T02:23:24.890Z,2.75
2023-02-22T02:26:46.430Z,2.95
2023-02-22T02:30:17.042Z,3.28
2023-02-22T02:33:27.081Z,3.40
2023-02-22T02:36:46.640Z,3.93
2023-02-22T02:40:27.752Z,3.37
2023-02-22T02:43:48.777Z,4.05
2023-02-22T02:46:52.225Z,3.10
2023-02-22T02:50:01.006Z,3.00
2023-02-22T02:53:06.488Z,3.20
2023-02-22T02:56:09.186Z,3.70
2023-02-22T02:59:27.695Z,3.10
2023-02-22T03:02:42.189Z,3.25
2023-02-22T03:06:06.175Z,3.28
2023-02-22T03:09:38.694Z,2.57
2023-02-22T03:13:11.932Z,2.62
2023-02-22T03:16:21.341Z,2.80
2023-02-22T03:19:46.260Z,2.62
2023-02-22T03:22:58.151Z,2.60
2023-02-22T03:26:10.156Z,2.20
2023-02-22T03:29:16.285Z,2.55
2023-02-22T03:32:24.051Z,2.65
2023-02-22T03:35:31.752Z,2.40
2023-02-22T03:38:37.495Z,3.12
2023-02-22T03:41:40.997Z,3.73
2023-02-22T03:44:44.769Z,3.03
2023-02-22T03:47:56.298Z,3.87
2023-02-22T03:51:01.228Z,3.40
2023-02-22T03:54:05.181Z,3.30
2023-02-22T03:57:16.236Z,2.93
2023-02-22T04:00:23.166Z,3.53
2023-02-22T04:03:25.982Z,3.25
2023-02-22T04:06:29.626Z,2.75
2023-02-22T04:09:32.915Z,3.80
2023-02-22T04:12:37.043Z,3.57
2023-02-22T04:15:39.677Z,3.70
2023-02-22T04:18:42.608Z,3.62
2023-02-22T04:21:45.298Z,3.58
2023-02-22T04:24:49.183Z,3.53
2023-02-22T04:27:55.130Z,4.23
2023-02-22T04:30:58.527Z,3.67
2023-02-22T04:34:02.627Z,3.90
2023-02-22T04:37:05.411Z,3.75
2023-02-22T04:40:10.765Z,4.62
2023-02-22T04:43:13.536Z,3.70
2023-02-22T04:46:16.409Z,4.35
2023-02-22T04:49:19.198Z,3.95
2023-02-22T04:52:22.090Z,4.10
2023-02-22T04:55:24.908Z,4.00
2023-02-22T04:58:28.178Z,4.57
2023-02-22T05:01:35.092Z,4.82
2023-02-22T05:04:41.062Z,4.53
2023-02-22T05:07:43.874Z,4.15
2023-02-22T05:10:46.715Z,3.62
2023-02-22T05:13:49.488Z,4.07
2023-02-22T05:16:52.174Z,4.70
2023-02-22T05:19:55.015Z,5.43
2023-02-22T05:22:59.072Z,4.93
2023-02-22T05:26:01.824Z,6.50
2023-02-22T05:29:04.737Z,5.50
2023-02-22T05:32:08.033Z,5.30
2023-02-22T05:35:10.821Z,4.32
2023-02-22T05:38:15.300Z,5.28
2023-02-22T05:41:18.876Z,9.77
2023-02-22T05:44:21.929Z,9.30
2023-02-22T05:47:24.580Z,5.03
2023-02-22T05:50:27.442Z,6.72
2023-02-22T05:53:30.703Z,6.05
2023-02-22T05:56:33.716Z,5.93
2023-02-22T05:59:39.575Z,5.80
2023-02-22T06:02:42.377Z,5.93
2023-02-22T06:05:45.160Z,6.22
2023-02-22T06:08:48.037Z,5.10
2023-02-22T06:11:50.783Z,5.62
2023-02-22T06:14:53.590Z,6.53
2023-02-22T06:17:58.044Z,5.87
2023-02-22T06:21:03.563Z,6.18
2023-02-22T06:24:06.684Z,6.35
2023-02-22T06:27:09.376Z,6.45
2023-02-22T06:30:14.580Z,6.60
2023-02-22T06:33:17.612Z,7.68
2023-02-22T06:36:20.309Z,7.45
2023-02-22T06:39:24.013Z,8.50
2023-02-22T06:42:26.939Z,9.73
2023-02-22T06:45:29.732Z,9.63
2023-02-22T06:48:33.298Z,9.75
2023-02-22T06:51:37.383Z,10.75
2023-02-22T06:54:40.188Z,9.20
2023-02-22T06:57:43.658Z,8.88
2023-02-22T07:00:47.238Z,9.27
2023-02-22T07:03:50.545Z,10.10
2023-02-22T07:06:53.369Z,12.10
2023-02-22T07:09:56.062Z,10.27
2023-02-22T07:12:58.959Z,8.77
2023-02-22T07:16:01.674Z,8.50
2023-02-22T07:19:04.385Z,10.05
2023-02-22T07:22:07.185Z,9.13
2023-02-22T07:25:11.564Z,9.15
2023-02-22T07:28:14.258Z,9.20
2023-02-22T07:31:17.304Z,8.80
2023-02-22T07:34:20.206Z,14.13
2023-02-22T07:37:22.977Z,8.70
2023-02-22T07:40:27.491Z,7.65
2023-02-22T07:43:31.848Z,7.07
2023-02-22T07:46:34.605Z,6.83
2023-02-22T07:49:37.497Z,6.95
2023-02-22T07:52:40.677Z,6.75
2023-02-22T07:55:43.882Z,6.70
2023-02-22T07:58:46.624Z,7.25
2023-02-22T08:01:50.681Z,6.87
2023-02-22T08:04:53.681Z,6.68
2023-02-22T08:07:59.889Z,7.12
2023-02-22T08:11:02.943Z,6.22
2023-02-22T08:14:06.674Z,6.50
2023-02-22T08:17:09.811Z,6.70
2023-02-22T08:20:13.592Z,6.47
2023-02-22T08:23:18.234Z,7.45
2023-02-22T08:26:21.086Z,6.12
2023-02-22T08:29:24.027Z,6.05
2023-02-22T08:32:27.239Z,6.77
2023-02-22T08:35:31.953Z,6.40
2023-02-22T08:38:35.155Z,6.12
2023-02-22T08:41:37.962Z,6.37
2023-02-22T08:44:41.151Z,5.97
2023-02-22T08:47:44.823Z,6.20
2023-02-22T08:50:47.583Z,5.90
2023-02-22T08:53:50.484Z,6.53
2023-02-22T08:56:53.243Z,5.93
2023-02-22T08:59:56.687Z,6.03
2023-02-22T09:03:01.697Z,6.20
2023-02-22T09:06:05.489Z,5.72
2023-02-22T09:09:08.404Z,5.15
2023-02-22T09:12:11.922Z,5.00
2023-02-22T09:15:16.635Z,5.40
2023-02-22T09:18:21.334Z,5.27
2023-02-22T09:21:24.067Z,5.90
2023-02-22T09:24:27.486Z,5.53
2023-02-22T09:27:30.395Z,11.07
2023-02-22T09:30:35.748Z,5.90
2023-02-22T09:33:38.604Z,5.10
2023-02-22T09:36:42.298Z,4.93
2023-02-22T09:39:45.479Z,4.85
2023-02-22T09:43:04.427Z,5.50
2023-02-22T09:46:20.029Z,5.47
2023-02-22T09:49:38.312Z,5.00
2023-02-22T09:52:50.239Z,5.85
2023-02-22T09:55:53.451Z,5.37
2023-02-22T09:59:00.453Z,4.85
2023-02-22T10:02:25.042Z,6.45
2023-02-22T10:05:42.158Z,5.20
2023-02-22T10:08:46.247Z,7.47
2023-02-22T10:12:00.734Z,6.12
2023-02-22T10:15:28.723Z,5.72
2023-02-22T10:19:08.702Z,5.60
2023-02-22T10:22:40.352Z,5.47
2023-02-22T10:25:45.701Z,5.82
2023-02-22T10:29:10.042Z,5.75
2023-02-22T10:32:19.810Z,9.38
2023-02-22T10:35:30.039Z,6.20
2023-02-22T10:38:34.673Z,5.30
2023-02-22T10:41:50.383Z,5.75
2023-02-22T10:44:53.675Z,6.10
2023-02-22T10:48:18.671Z,5.78
2023-02-22T10:51:21.785Z,5.28
2023-02-22T10:55:01.010Z,5.90
2023-02-22T10:58:09.389Z,6.00
2023-02-22T11:01:36.763Z,6.10
2023-02-22T11:04:51.954Z,6.85
2023-02-22T11:08:22.827Z,6.53
2023-02-22T11:11:29.080Z,6.10
2023-02-22T11:14:32.169Z,6.30
2023-02-22T11:17:35.121Z,6.30
2023-02-22T11:20:39.901Z,6.80
2023-02-22T11:23:45.041Z,7.03
2023-02-22T11:26:50.889Z,7.30
2023-02-22T11:29:53.783Z,7.40
2023-02-22T11:33:23.934Z,6.70
2023-02-22T11:36:33.239Z,5.82
2023-02-22T11:39:38.735Z,5.20
2023-02-22T11:42:41.987Z,7.00
2023-02-22T11:46:02.194Z,5.15
2023-02-22T11:49:09.430Z,5.43
2023-02-22T11:52:31.885Z,5.57
2023-02-22T11:55:45.587Z,6.20
2023-02-22T11:59:08.318Z,6.27
2023-02-22T12:03:00.634Z,6.28
2023-02-22T12:06:12.731Z,6.65
2023-02-22T12:09:27.331Z,6.15
2023-02-22T12:13:20.925Z,6.05
2023-02-22T12:16:39.007Z,6.50
2023-02-22T12:19:43.867Z,5.93
2023-02-22T12:23:04.691Z,6.37
2023-02-22T12:26:16.806Z,6.00
2023-02-22T12:29:54.205Z,5.22
2023-02-22T12:33:06.174Z,4.60
2023-02-22T12:36:14.757Z,5.20
2023-02-22T12:39:52.886Z,5.25
2023-02-22T12:43:18.373Z,5.18
2023-02-22T12:47:00.858Z,5.62
2023-02-22T12:50:15.589Z,5.53
2023-02-22T12:53:39.069Z,5.97
2023-02-22T12:56:46.861Z,5.95
2023-02-22T12:59:52.881Z,5.50
2023-02-22T13:03:00.998Z,5.05
2023-02-22T13:06:55.742Z,5.03
2023-02-22T13:10:23.696Z,5.00
2023-02-22T13:13:43.493Z,5.00
2023-02-22T13:17:05.231Z,5.10
2023-02-22T13:20:14.740Z,4.72
2023-02-22T13:23:39.678Z,4.90
2023-02-22T13:26:54.761Z,4.55
2023-02-22T13:29:59.657Z,5.12
2023-02-22T13:33:15.745Z,4.82
2023-02-22T13:36:38.783Z,5.00
2023-02-22T13:40:31.994Z,4.13
2023-02-22T13:43:47.080Z,5.60
2023-02-22T13:47:16.628Z,6.00
2023-02-22T13:50:39.533Z,6.68
2023-02-22T13:53:56.214Z,5.97
2023-02-22T13:56:59.104Z,6.60
2023-02-22T14:00:21.137Z,6.53
2023-02-22T14:03:36.561Z,6.97
2023-02-22T14:06:41.885Z,6.57
2023-02-22T14:09:51.266Z,8.93
2023-02-22T14:12:53.976Z,7.07
2023-02-22T14:16:00.362Z,6.57
2023-02-22T14:19:18.255Z,6.05
2023-02-22T14:22:28.298Z,6.32
2023-02-22T14:25:43.038Z,6.30
2023-02-22T14:29:00.110Z,6.33
2023-02-22T14:32:08.608Z,6.45
2023-02-22T14:35:28.630Z,6.62
2023-02-22T14:38:36.725Z,6.70
2023-02-22T14:41:43.133Z,8.50
2023-02-22T14:44:54.346Z,6.37
2023-02-22T14:48:25.183Z,6.50
2023-02-22T14:51:43.092Z,5.90
2023-02-22T14:54:54.227Z,6.62
2023-02-22T14:58:06.736Z,8.32
2023-02-22T15:01:20.315Z,6.53
2023-02-22T15:04:25.845Z,6.55
2023-02-22T15:07:31.850Z,17.20
2023-02-22T15:10:43.739Z,19.73
2023-02-22T15:13:51.574Z,18.35
2023-02-22T15:16:57.257Z,10.10
2023-02-22T15:20:00.572Z,8.05
2023-02-22T15:23:04.994Z,15.00
2023-02-22T15:26:09.329Z,12.23
2023-02-22T15:29:23.448Z,9.70
2023-02-22T15:32:36.533Z,9.43
2023-02-22T15:35:40.787Z,12.48
2023-02-22T15:38:49.470Z,10.15
2023-02-22T15:42:19.616Z,10.38
2023-02-22T15:45:27.370Z,9.07
2023-02-22T15:48:32.029Z,9.33
2023-02-22T15:51:36.255Z,8.20
2023-02-22T15:54:45.210Z,8.55
2023-02-22T15:57:48.446Z,8.02
2023-02-22T16:01:01.805Z,9.55
2023-02-22T16:04:04.982Z,10.77
2023-02-22T16:07:21.481Z,10.10
2023-02-22T16:10:33.100Z,10.77
2023-02-22T16:13:36.602Z,11.85
2023-02-22T16:16:43.554Z,10.48
2023-02-22T16:19:46.971Z,12.23
2023-02-22T16:22:50.241Z,13.15
2023-02-22T16:26:16.952Z,13.40
2023-02-22T16:29:27.009Z,14.00
2023-02-22T16:32:30.745Z,15.07
2023-02-22T16:35:35.777Z,20.43
2023-02-22T16:38:39.730Z,25.98
2023-02-22T16:41:42.973Z,19.05
2023-02-22T16:44:46.145Z,12.43
2023-02-22T16:47:53.864Z,11.27
2023-02-22T16:51:01.924Z,11.20
2023-02-22T16:54:04.805Z,10.18
2023-02-22T16:57:07.688Z,9.73
2023-02-22T17:00:22.009Z,10.32
2023-02-22T17:03:26.752Z,10.13
2023-02-22T17:06:29.611Z,8.97
2023-02-22T17:09:33.197Z,8.60
2023-02-22T17:12:36.054Z,8.40
2023-02-22T17:15:39.003Z,11.70
2023-02-22T17:18:42.126Z,9.75
2023-02-22T17:21:45.218Z,9.83
2023-02-22T17:24:48.286Z,10.00
2023-02-22T17:27:51.331Z,9.68
2023-02-22T17:30:55.814Z,15.23
2023-02-22T17:34:06.724Z,9.68
2023-02-22T17:37:11.125Z,7.80
2023-02-22T17:40:17.363Z,12.73
2023-02-22T17:43:20.497Z,11.93
2023-02-22T17:46:25.388Z,13.05
2023-02-22T17:49:28.222Z,13.23
2023-02-22T17:52:30.975Z,13.40
2023-02-22T17:55:34.646Z,16.58
2023-02-22T17:58:37.832Z,15.73
2023-02-22T18:01:44.124Z,16.70
2023-02-22T18:04:47.169Z,14.57
2023-02-22T18:07:50.117Z,15.00
2023-02-22T18:11:02.200Z,15.70
2023-02-22T18:14:10.174Z,13.15
2023-02-22T18:17:12.958Z,15.73
2023-02-22T18:20:20.565Z,16.73
2023-02-22T18:23:28.015Z,19.10
2023-02-22T18:26:31.796Z,19.52
2023-02-22T18:29:34.968Z,20.10
2023-02-22T18:32:38.808Z,19.08
2023-02-22T18:35:47.799Z,20.67
2023-02-22T18:38:55.288Z,20.63
2023-02-22T18:41:58.556Z,20.62
2023-02-22T18:49:02.329Z,21.33
2023-02-22T18:52:12.256Z,22.10
2023-02-22T18:55:21.279Z,21.60
2023-02-22T18:58:24.332Z,22.73
2023-02-22T19:01:28.185Z,22.27
2023-02-22T19:04:31.324Z,21.73
2023-02-22T19:07:34.552Z,20.48
2023-02-22T19:10:38.934Z,19.13
2023-02-22T19:13:41.788Z,19.42
2023-02-22T19:16:48.361Z,21.10
2023-02-22T19:19:52.845Z,18.08
2023-02-22T19:23:00.666Z,17.05
2023-02-22T19:26:05.042Z,18.47
2023-02-22T19:29:09.787Z,19.25
2023-02-22T19:32:14.090Z,18.58
2023-02-22T19:35:26.437Z,17.73
2023-02-22T19:38:29.692Z,19.33
2023-02-22T19:41:37.495Z,20.07
2023-02-22T19:44:41.743Z,19.50
2023-02-22T19:47:46.643Z,19.27
2023-02-22T19:50:50.163Z,22.55
2023-02-22T19:53:54.567Z,20.17
2023-02-22T19:56:59.017Z,23.13
2023-02-22T20:00:11.004Z,23.40
2023-02-22T20:03:16.027Z,22.40
2023-02-22T20:06:19.109Z,20.77
2023-02-22T20:09:24.957Z,22.73
2023-02-22T20:12:27.991Z,21.23
2023-02-22T20:15:34.805Z,22.98
2023-02-22T20:18:38.020Z,21.65
2023-02-22T20:21:41.294Z,20.17
2023-02-22T20:24:44.496Z,20.92
2023-02-22T20:27:48.133Z,21.83
2023-02-22T20:30:51.955Z,20.73
2023-02-22T20:33:57.453Z,21.35
2023-02-22T20:37:01.588Z,21.55
2023-02-22T20:40:05.389Z,21.98
2023-02-22T20:43:09.453Z,24.13
2023-02-22T20:46:12.772Z,22.20
2023-02-22T20:49:18.310Z,23.48
2023-02-22T20:52:21.503Z,21.45
2023-02-22T20:55:25.115Z,22.48
2023-02-22T20:58:29.375Z,22.00
2023-02-22T21:01:32.894Z,25.77
2023-02-22T21:04:35.986Z,22.62
2023-02-22T21:07:39.639Z,23.35
2023-02-22T21:10:47.405Z,24.02
2023-02-22T21:13:51.210Z,23.57
2023-02-22T21:16:54.755Z,23.67
2023-02-22T21:19:58.738Z,26.17
2023-02-22T21:23:03.234Z,25.23
2023-02-22T21:26:07.390Z,23.17
2023-02-22T21:29:10.473Z,25.27
2023-02-22T21:32:14.051Z,23.27
2023-02-22T21:35:16.953Z,23.92
2023-02-22T21:38:21.066Z,22.10
2023-02-22T21:41:27.983Z,22.35
2023-02-22T21:44:31.154Z,27.00
2023-02-22T21:47:35.976Z,23.38
2023-02-22T21:50:39.229Z,25.30
2023-02-22T21:53:46.771Z,24.00
2023-02-22T21:56:50.013Z,23.30
2023-02-22T21:59:53.386Z,20.73
2023-02-22T22:03:11.938Z,21.50
2023-02-22T22:06:15.254Z,20.50
2023-02-22T22:09:19.282Z,20.00
2023-02-22T22:12:26.024Z,22.33
2023-02-22T22:15:37.036Z,19.60
2023-02-22T22:18:41.186Z,19.00
2023-02-22T22:21:46.795Z,20.17
2023-02-22T22:24:50.215Z,21.77
2023-02-22T22:27:52.979Z,22.55
2023-02-22T22:30:55.956Z,26.53
2023-02-22T22:33:58.870Z,21.77
2023-02-22T22:37:01.620Z,19.92
2023-02-22T22:40:05.761Z,19.40
2023-02-22T22:43:08.901Z,19.73
2023-02-22T22:46:13.409Z,19.07
2023-02-22T22:49:16.579Z,18.45
2023-02-22T22:52:19.363Z,19.05
2023-02-22T22:55:24.540Z,20.25
2023-02-22T22:58:27.306Z,21.95
2023-02-22T23:01:34.386Z,20.53
2023-02-22T23:04:38.267Z,19.40
2023-02-22T23:07:41.059Z,17.67
2023-02-22T23:10:43.942Z,17.92
2023-02-22T23:13:47.017Z,19.85
2023-02-22T23:16:51.364Z,19.30
2023-02-22T23:19:54.204Z,18.50
2023-02-22T23:22:58.106Z,17.65
2023-02-22T23:26:11.741Z,16.05
2023-02-22T23:29:15.042Z,16.20
2023-02-22T23:32:18.112Z,14.93
2023-02-22T23:35:21.011Z,15.60
2023-02-22T23:38:23.730Z,15.57
2023-02-22T23:41:28.863Z,16.00
2023-02-22T23:44:31.654Z,16.35
2023-02-22T23:47:34.294Z,15.00
2023-02-22T23:50:36.986Z,15.10
2023-02-22T23:53:46.097Z,14.95
2023-02-22T23:56:58.651Z,14.93
